sensor_id;sensor_type;location;lat;lon;timestamp;P1;durP1;ratioP1;P2;durP2;ratioP2
58472;SDS011;44775;51.564;5.460;2023-12-20T00:00:38;9.88;;;3.80;;
58472;SDS011;44775;51.564;5.460;2023-12-20T00:03:04;18.08;;;5.30;;
58472;SDS011;44775;51.564;5.460;2023-12-20T00:05:29;14.38;;;4.32;;
58472;SDS011;44775;51.564;5.460;2023-12-20T00:07:57;13.85;;;4.88;;
58472;SDS011;44775;51.564;5.460;2023-12-20T00:10:22;18.02;;;5.15;;
58472;SDS011;44775;51.564;5.460;2023-12-20T00:12:47;15.82;;;5.00;;
58472;SDS011;44775;51.564;5.460;2023-12-20T00:15:13;12.95;;;4.40;;
58472;SDS011;44775;51.564;5.460;2023-12-20T00:17:38;19.60;;;4.63;;
58472;SDS011;44775;51.564;5.460;2023-12-20T00:20:03;10.50;;;4.32;;
58472;SDS011;44775;51.564;5.460;2023-12-20T00:22:30;17.02;;;4.43;;
58472;SDS011;44775;51.564;5.460;2023-12-20T00:24:55;15.27;;;4.40;;
58472;SDS011;44775;51.564;5.460;2023-12-20T00:27:21;19.95;;;4.90;;
58472;SDS011;44775;51.564;5.460;2023-12-20T00:29:46;20.30;;;4.72;;
58472;SDS011;44775;51.564;5.460;2023-12-20T00:32:14;16.42;;;3.90;;
58472;SDS011;44775;51.564;5.460;2023-12-20T00:34:39;13.35;;;4.20;;
58472;SDS011;44775;51.564;5.460;2023-12-20T00:37:05;19.83;;;5.32;;
58472;SDS011;44775;51.564;5.460;2023-12-20T00:39:30;18.80;;;4.85;;
58472;SDS011;44775;51.564;5.460;2023-12-20T00:41:56;19.38;;;4.30;;
58472;SDS011;44775;51.564;5.460;2023-12-20T00:44:21;15.68;;;4.18;;
58472;SDS011;44775;51.564;5.460;2023-12-20T00:46:46;20.27;;;4.40;;
58472;SDS011;44775;51.564;5.460;2023-12-20T00:49:12;18.00;;;4.15;;
58472;SDS011;44775;51.564;5.460;2023-12-20T00:51:37;15.60;;;4.03;;
58472;SDS011;44775;51.564;5.460;2023-12-20T00:54:02;16.88;;;4.35;;
58472;SDS011;44775;51.564;5.460;2023-12-20T00:56:27;14.13;;;3.95;;
58472;SDS011;44775;51.564;5.460;2023-12-20T00:58:53;22.73;;;4.63;;
58472;SDS011;44775;51.564;5.460;2023-12-20T01:01:18;20.58;;;4.40;;
58472;SDS011;44775;51.564;5.460;2023-12-20T01:03:43;21.45;;;4.45;;
58472;SDS011;44775;51.564;5.460;2023-12-20T01:06:09;20.00;;;4.25;;
58472;SDS011;44775;51.564;5.460;2023-12-20T01:08:34;15.38;;;4.53;;
58472;SDS011;44775;51.564;5.460;2023-12-20T01:11:00;19.85;;;4.70;;
58472;SDS011;44775;51.564;5.460;2023-12-20T01:13:25;18.85;;;4.43;;
58472;SDS011;44775;51.564;5.460;2023-12-20T01:15:50;26.02;;;4.47;;
58472;SDS011;44775;51.564;5.460;2023-12-20T01:18:16;22.48;;;4.40;;
58472;SDS011;44775;51.564;5.460;2023-12-20T01:20:41;16.77;;;4.30;;
58472;SDS011;44775;51.564;5.460;2023-12-20T01:23:06;17.08;;;4.50;;
58472;SDS011;44775;51.564;5.460;2023-12-20T01:25:31;22.10;;;4.32;;
58472;SDS011;44775;51.564;5.460;2023-12-20T01:27:57;17.52;;;4.38;;
58472;SDS011;44775;51.564;5.460;2023-12-20T01:30:22;21.27;;;4.63;;
58472;SDS011;44775;51.564;5.460;2023-12-20T01:32:47;18.95;;;4.50;;
58472;SDS011;44775;51.564;5.460;2023-12-20T01:35:13;20.73;;;4.35;;
58472;SDS011;44775;51.564;5.460;2023-12-20T01:37:38;22.30;;;5.07;;
58472;SDS011;44775;51.564;5.460;2023-12-20T01:40:03;18.70;;;4.13;;
58472;SDS011;44775;51.564;5.460;2023-12-20T01:42:29;19.35;;;4.18;;
58472;SDS011;44775;51.564;5.460;2023-12-20T01:44:54;15.57;;;4.15;;
58472;SDS011;44775;51.564;5.460;2023-12-20T01:47:21;9.50;;;3.15;;
58472;SDS011;44775;51.564;5.460;2023-12-20T01:49:47;18.65;;;4.25;;
58472;SDS011;44775;51.564;5.460;2023-12-20T01:52:13;18.65;;;4.38;;
58472;SDS011;44775;51.564;5.460;2023-12-20T01:54:38;14.52;;;4.05;;
58472;SDS011;44775;51.564;5.460;2023-12-20T01:57:05;15.02;;;3.90;;
58472;SDS011;44775;51.564;5.460;2023-12-20T01:59:32;23.20;;;4.78;;
58472;SDS011;44775;51.564;5.460;2023-12-20T02:01:58;24.90;;;4.13;;
58472;SDS011;44775;51.564;5.460;2023-12-20T02:04:24;18.65;;;4.13;;
58472;SDS011;44775;51.564;5.460;2023-12-20T02:06:51;16.58;;;4.47;;
58472;SDS011;44775;51.564;5.460;2023-12-20T02:09:18;20.92;;;4.28;;
58472;SDS011;44775;51.564;5.460;2023-12-20T02:11:43;19.48;;;4.20;;
58472;SDS011;44775;51.564;5.460;2023-12-20T02:14:09;19.08;;;4.20;;
58472;SDS011;44775;51.564;5.460;2023-12-20T02:16:34;18.20;;;4.07;;
58472;SDS011;44775;51.564;5.460;2023-12-20T02:18:59;18.27;;;4.22;;
58472;SDS011;44775;51.564;5.460;2023-12-20T02:21:25;15.27;;;3.97;;
58472;SDS011;44775;51.564;5.460;2023-12-20T02:23:56;25.73;;;5.10;;
58472;SDS011;44775;51.564;5.460;2023-12-20T02:26:21;27.83;;;4.65;;
58472;SDS011;44775;51.564;5.460;2023-12-20T02:28:47;19.05;;;4.60;;
58472;SDS011;44775;51.564;5.460;2023-12-20T02:31:12;22.05;;;4.65;;
58472;SDS011;44775;51.564;5.460;2023-12-20T02:33:37;22.08;;;4.85;;
58472;SDS011;44775;51.564;5.460;2023-12-20T02:36:04;21.98;;;4.78;;
58472;SDS011;44775;51.564;5.460;2023-12-20T02:38:31;21.55;;;5.13;;
58472;SDS011;44775;51.564;5.460;2023-12-20T02:40:56;26.42;;;5.25;;
58472;SDS011;44775;51.564;5.460;2023-12-20T02:43:21;22.75;;;5.38;;
58472;SDS011;44775;51.564;5.460;2023-12-20T02:45:47;22.02;;;4.53;;
58472;SDS011;44775;51.564;5.460;2023-12-20T02:48:12;17.25;;;5.10;;
58472;SDS011;44775;51.564;5.460;2023-12-20T02:50:37;19.58;;;4.63;;
58472;SDS011;44775;51.564;5.460;2023-12-20T02:53:03;26.80;;;4.80;;
58472;SDS011;44775;51.564;5.460;2023-12-20T02:55:28;18.58;;;4.45;;
58472;SDS011;44775;51.564;5.460;2023-12-20T02:57:53;20.63;;;4.88;;
58472;SDS011;44775;51.564;5.460;2023-12-20T03:00:19;30.33;;;5.55;;
58472;SDS011;44775;51.564;5.460;2023-12-20T03:02:44;22.23;;;5.00;;
58472;SDS011;44775;51.564;5.460;2023-12-20T03:05:09;27.48;;;5.75;;
58472;SDS011;44775;51.564;5.460;2023-12-20T03:07:36;21.25;;;5.13;;
58472;SDS011;44775;51.564;5.460;2023-12-20T03:10:02;26.10;;;5.22;;
58472;SDS011;44775;51.564;5.460;2023-12-20T03:12:28;18.05;;;4.55;;
58472;SDS011;44775;51.564;5.460;2023-12-20T03:14:53;22.20;;;4.93;;
58472;SDS011;44775;51.564;5.460;2023-12-20T03:17:18;25.05;;;5.43;;
58472;SDS011;44775;51.564;5.460;2023-12-20T03:19:44;27.48;;;5.38;;
58472;SDS011;44775;51.564;5.460;2023-12-20T03:22:09;25.20;;;5.22;;
58472;SDS011;44775;51.564;5.460;2023-12-20T03:24:35;23.83;;;4.82;;
58472;SDS011;44775;51.564;5.460;2023-12-20T03:27:00;26.23;;;5.00;;
58472;SDS011;44775;51.564;5.460;2023-12-20T03:29:26;23.90;;;5.38;;
58472;SDS011;44775;51.564;5.460;2023-12-20T03:31:51;18.70;;;4.68;;
58472;SDS011;44775;51.564;5.460;2023-12-20T03:34:16;22.50;;;5.15;;
58472;SDS011;44775;51.564;5.460;2023-12-20T03:36:41;17.33;;;4.97;;
58472;SDS011;44775;51.564;5.460;2023-12-20T03:39:07;22.08;;;5.63;;
58472;SDS011;44775;51.564;5.460;2023-12-20T03:41:32;22.25;;;4.90;;
58472;SDS011;44775;51.564;5.460;2023-12-20T03:43:58;20.60;;;4.78;;
58472;SDS011;44775;51.564;5.460;2023-12-20T03:46:23;20.20;;;5.03;;
58472;SDS011;44775;51.564;5.460;2023-12-20T03:48:48;20.52;;;5.57;;
58472;SDS011;44775;51.564;5.460;2023-12-20T03:51:14;21.88;;;4.93;;
58472;SDS011;44775;51.564;5.460;2023-12-20T03:53:39;23.08;;;5.45;;
58472;SDS011;44775;51.564;5.460;2023-12-20T03:56:05;28.77;;;6.43;;
58472;SDS011;44775;51.564;5.460;2023-12-20T03:58:31;23.67;;;5.53;;
58472;SDS011;44775;51.564;5.460;2023-12-20T04:00:56;23.48;;;5.60;;
58472;SDS011;44775;51.564;5.460;2023-12-20T04:03:21;27.02;;;5.68;;
58472;SDS011;44775;51.564;5.460;2023-12-20T04:05:46;26.77;;;5.70;;
58472;SDS011;44775;51.564;5.460;2023-12-20T04:08:12;21.08;;;5.78;;
58472;SDS011;44775;51.564;5.460;2023-12-20T04:10:37;23.65;;;5.93;;
58472;SDS011;44775;51.564;5.460;2023-12-20T04:13:03;30.00;;;5.07;;
58472;SDS011;44775;51.564;5.460;2023-12-20T04:15:29;24.90;;;5.78;;
58472;SDS011;44775;51.564;5.460;2023-12-20T04:17:54;24.27;;;5.40;;
58472;SDS011;44775;51.564;5.460;2023-12-20T04:20:19;24.15;;;5.80;;
58472;SDS011;44775;51.564;5.460;2023-12-20T04:22:44;22.70;;;6.18;;
58472;SDS011;44775;51.564;5.460;2023-12-20T04:25:10;25.13;;;5.25;;
58472;SDS011;44775;51.564;5.460;2023-12-20T04:27:35;21.70;;;5.10;;
58472;SDS011;44775;51.564;5.460;2023-12-20T04:30:00;26.77;;;5.63;;
58472;SDS011;44775;51.564;5.460;2023-12-20T04:32:26;27.55;;;5.82;;
58472;SDS011;44775;51.564;5.460;2023-12-20T04:34:51;22.33;;;5.55;;
58472;SDS011;44775;51.564;5.460;2023-12-20T04:37:16;29.75;;;5.97;;
58472;SDS011;44775;51.564;5.460;2023-12-20T04:39:42;20.55;;;5.40;;
58472;SDS011;44775;51.564;5.460;2023-12-20T04:42:07;25.27;;;5.80;;
58472;SDS011;44775;51.564;5.460;2023-12-20T04:44:32;23.42;;;5.32;;
58472;SDS011;44775;51.564;5.460;2023-12-20T04:46:58;22.75;;;5.50;;
58472;SDS011;44775;51.564;5.460;2023-12-20T04:49:23;25.25;;;4.90;;
58472;SDS011;44775;51.564;5.460;2023-12-20T04:51:48;31.73;;;5.40;;
58472;SDS011;44775;51.564;5.460;2023-12-20T04:54:14;23.15;;;5.00;;
58472;SDS011;44775;51.564;5.460;2023-12-20T04:56:39;23.48;;;5.05;;
58472;SDS011;44775;51.564;5.460;2023-12-20T04:59:05;22.75;;;5.18;;
58472;SDS011;44775;51.564;5.460;2023-12-20T05:01:30;19.83;;;4.72;;
58472;SDS011;44775;51.564;5.460;2023-12-20T05:03:56;23.70;;;4.93;;
58472;SDS011;44775;51.564;5.460;2023-12-20T05:06:21;21.40;;;4.68;;
58472;SDS011;44775;51.564;5.460;2023-12-20T05:08:46;25.92;;;4.78;;
58472;SDS011;44775;51.564;5.460;2023-12-20T05:11:11;24.77;;;5.35;;
58472;SDS011;44775;51.564;5.460;2023-12-20T05:13:39;21.58;;;5.22;;
58472;SDS011;44775;51.564;5.460;2023-12-20T05:16:04;23.00;;;5.45;;
58472;SDS011;44775;51.564;5.460;2023-12-20T05:18:30;18.98;;;4.70;;
58472;SDS011;44775;51.564;5.460;2023-12-20T05:20:55;22.48;;;4.55;;
58472;SDS011;44775;51.564;5.460;2023-12-20T05:23:21;24.67;;;5.50;;
58472;SDS011;44775;51.564;5.460;2023-12-20T05:25:46;27.73;;;5.07;;
58472;SDS011;44775;51.564;5.460;2023-12-20T05:28:11;17.45;;;5.03;;
58472;SDS011;44775;51.564;5.460;2023-12-20T05:30:36;19.77;;;4.38;;
58472;SDS011;44775;51.564;5.460;2023-12-20T05:33:02;19.23;;;4.55;;
58472;SDS011;44775;51.564;5.460;2023-12-20T05:35:27;23.80;;;4.70;;
58472;SDS011;44775;51.564;5.460;2023-12-20T05:37:52;20.15;;;5.05;;
58472;SDS011;44775;51.564;5.460;2023-12-20T05:40:18;23.42;;;4.18;;
58472;SDS011;44775;51.564;5.460;2023-12-20T05:42:43;16.33;;;4.40;;
58472;SDS011;44775;51.564;5.460;2023-12-20T05:45:09;22.38;;;4.25;;
58472;SDS011;44775;51.564;5.460;2023-12-20T05:47:34;23.73;;;4.45;;
58472;SDS011;44775;51.564;5.460;2023-12-20T05:49:59;20.90;;;4.28;;
58472;SDS011;44775;51.564;5.460;2023-12-20T05:52:25;21.85;;;4.25;;
58472;SDS011;44775;51.564;5.460;2023-12-20T05:54:50;24.15;;;4.43;;
58472;SDS011;44775;51.564;5.460;2023-12-20T05:57:15;29.65;;;4.97;;
58472;SDS011;44775;51.564;5.460;2023-12-20T05:59:40;17.48;;;3.97;;
58472;SDS011;44775;51.564;5.460;2023-12-20T06:02:06;21.05;;;4.30;;
58472;SDS011;44775;51.564;5.460;2023-12-20T06:04:31;20.63;;;4.30;;
58472;SDS011;44775;51.564;5.460;2023-12-20T06:06:57;21.98;;;4.78;;
58472;SDS011;44775;51.564;5.460;2023-12-20T06:09:22;26.40;;;4.97;;
58472;SDS011;44775;51.564;5.460;2023-12-20T06:11:47;21.40;;;4.47;;
58472;SDS011;44775;51.564;5.460;2023-12-20T06:14:13;24.08;;;5.18;;
58472;SDS011;44775;51.564;5.460;2023-12-20T06:16:38;21.50;;;4.15;;
58472;SDS011;44775;51.564;5.460;2023-12-20T06:19:03;20.00;;;5.00;;
58472;SDS011;44775;51.564;5.460;2023-12-20T06:21:29;24.05;;;5.28;;
58472;SDS011;44775;51.564;5.460;2023-12-20T06:23:54;23.02;;;5.53;;
58472;SDS011;44775;51.564;5.460;2023-12-20T06:26:19;22.42;;;4.68;;
58472;SDS011;44775;51.564;5.460;2023-12-20T06:28:45;19.33;;;4.80;;
58472;SDS011;44775;51.564;5.460;2023-12-20T06:31:10;22.35;;;4.95;;
58472;SDS011;44775;51.564;5.460;2023-12-20T06:33:36;26.13;;;5.40;;
58472;SDS011;44775;51.564;5.460;2023-12-20T06:36:01;23.05;;;4.68;;
58472;SDS011;44775;51.564;5.460;2023-12-20T06:38:26;19.17;;;5.07;;
58472;SDS011;44775;51.564;5.460;2023-12-20T06:40:52;25.02;;;5.05;;
58472;SDS011;44775;51.564;5.460;2023-12-20T06:43:17;27.83;;;5.18;;
58472;SDS011;44775;51.564;5.460;2023-12-20T06:45:42;29.98;;;5.85;;
58472;SDS011;44775;51.564;5.460;2023-12-20T06:48:08;23.30;;;5.32;;
58472;SDS011;44775;51.564;5.460;2023-12-20T06:50:36;20.83;;;5.30;;
58472;SDS011;44775;51.564;5.460;2023-12-20T06:53:04;25.60;;;5.85;;
58472;SDS011;44775;51.564;5.460;2023-12-20T06:55:31;24.20;;;6.05;;
58472;SDS011;44775;51.564;5.460;2023-12-20T06:57:57;24.48;;;5.70;;
58472;SDS011;44775;51.564;5.460;2023-12-20T07:00:22;20.70;;;6.43;;
58472;SDS011;44775;51.564;5.460;2023-12-20T07:02:48;28.45;;;8.57;;
58472;SDS011;44775;51.564;5.460;2023-12-20T07:05:15;25.92;;;6.82;;
58472;SDS011;44775;51.564;5.460;2023-12-20T07:07:41;25.40;;;7.18;;
58472;SDS011;44775;51.564;5.460;2023-12-20T07:10:07;23.42;;;6.65;;
58472;SDS011;44775;51.564;5.460;2023-12-20T07:12:33;24.88;;;7.22;;
58472;SDS011;44775;51.564;5.460;2023-12-20T07:14:58;20.50;;;6.40;;
58472;SDS011;44775;51.564;5.460;2023-12-20T07:17:23;27.60;;;7.00;;
58472;SDS011;44775;51.564;5.460;2023-12-20T07:19:48;29.45;;;6.50;;
58472;SDS011;44775;51.564;5.460;2023-12-20T07:22:14;26.90;;;7.13;;
58472;SDS011;44775;51.564;5.460;2023-12-20T07:24:39;27.77;;;7.40;;
58472;SDS011;44775;51.564;5.460;2023-12-20T07:27:04;29.67;;;6.90;;
58472;SDS011;44775;51.564;5.460;2023-12-20T07:29:29;23.35;;;6.60;;
58472;SDS011;44775;51.564;5.460;2023-12-20T07:31:55;26.35;;;7.10;;
58472;SDS011;44775;51.564;5.460;2023-12-20T07:34:20;24.55;;;6.90;;
58472;SDS011;44775;51.564;5.460;2023-12-20T07:36:46;27.33;;;7.30;;
58472;SDS011;44775;51.564;5.460;2023-12-20T07:39:12;23.35;;;6.55;;
58472;SDS011;44775;51.564;5.460;2023-12-20T07:41:37;23.90;;;7.03;;
58472;SDS011;44775;51.564;5.460;2023-12-20T07:44:04;25.50;;;7.20;;
58472;SDS011;44775;51.564;5.460;2023-12-20T07:46:29;26.63;;;7.05;;
58472;SDS011;44775;51.564;5.460;2023-12-20T07:48:54;23.08;;;6.25;;
58472;SDS011;44775;51.564;5.460;2023-12-20T07:51:20;22.10;;;6.10;;
58472;SDS011;44775;51.564;5.460;2023-12-20T07:53:46;26.00;;;7.50;;
58472;SDS011;44775;51.564;5.460;2023-12-20T07:56:15;26.25;;;6.15;;
58472;SDS011;44775;51.564;5.460;2023-12-20T07:58:41;24.65;;;5.80;;
58472;SDS011;44775;51.564;5.460;2023-12-20T08:01:06;26.73;;;6.28;;
58472;SDS011;44775;51.564;5.460;2023-12-20T08:03:32;24.60;;;6.25;;
58472;SDS011;44775;51.564;5.460;2023-12-20T08:05:57;25.42;;;6.57;;
58472;SDS011;44775;51.564;5.460;2023-12-20T08:08:24;23.50;;;5.88;;
58472;SDS011;44775;51.564;5.460;2023-12-20T08:10:49;26.17;;;6.43;;
58472;SDS011;44775;51.564;5.460;2023-12-20T08:13:15;21.13;;;6.38;;
58472;SDS011;44775;51.564;5.460;2023-12-20T08:15:40;27.48;;;6.10;;
58472;SDS011;44775;51.564;5.460;2023-12-20T08:18:06;21.75;;;5.72;;
58472;SDS011;44775;51.564;5.460;2023-12-20T08:20:31;24.45;;;5.43;;
58472;SDS011;44775;51.564;5.460;2023-12-20T08:22:56;26.75;;;5.32;;
58472;SDS011;44775;51.564;5.460;2023-12-20T08:25:21;30.60;;;6.50;;
58472;SDS011;44775;51.564;5.460;2023-12-20T08:27:47;25.60;;;5.47;;
58472;SDS011;44775;51.564;5.460;2023-12-20T08:30:12;26.55;;;5.70;;
58472;SDS011;44775;51.564;5.460;2023-12-20T08:32:38;22.08;;;5.68;;
58472;SDS011;44775;51.564;5.460;2023-12-20T08:35:03;21.65;;;5.85;;
58472;SDS011;44775;51.564;5.460;2023-12-20T08:37:29;21.50;;;5.70;;
58472;SDS011;44775;51.564;5.460;2023-12-20T08:39:55;24.25;;;6.07;;
58472;SDS011;44775;51.564;5.460;2023-12-20T08:42:20;23.38;;;5.60;;
58472;SDS011;44775;51.564;5.460;2023-12-20T08:44:46;25.00;;;5.72;;
58472;SDS011;44775;51.564;5.460;2023-12-20T08:47:11;25.42;;;5.68;;
58472;SDS011;44775;51.564;5.460;2023-12-20T08:49:38;16.83;;;5.38;;
58472;SDS011;44775;51.564;5.460;2023-12-20T08:52:04;18.10;;;4.93;;
58472;SDS011;44775;51.564;5.460;2023-12-20T08:54:30;25.70;;;6.30;;
58472;SDS011;44775;51.564;5.460;2023-12-20T08:56:55;25.52;;;6.47;;
58472;SDS011;44775;51.564;5.460;2023-12-20T08:59:20;20.92;;;6.43;;
58472;SDS011;44775;51.564;5.460;2023-12-20T09:01:45;24.85;;;6.07;;
58472;SDS011;44775;51.564;5.460;2023-12-20T09:04:13;24.85;;;5.68;;
58472;SDS011;44775;51.564;5.460;2023-12-20T09:06:38;22.45;;;5.45;;
58472;SDS011;44775;51.564;5.460;2023-12-20T09:09:03;27.42;;;5.95;;
58472;SDS011;44775;51.564;5.460;2023-12-20T09:11:28;22.88;;;7.05;;
58472;SDS011;44775;51.564;5.460;2023-12-20T09:13:54;20.67;;;6.63;;
58472;SDS011;44775;51.564;5.460;2023-12-20T09:16:19;25.13;;;6.45;;
58472;SDS011;44775;51.564;5.460;2023-12-20T09:18:45;23.73;;;5.53;;
58472;SDS011;44775;51.564;5.460;2023-12-20T09:21:11;24.48;;;6.90;;
58472;SDS011;44775;51.564;5.460;2023-12-20T09:23:37;26.42;;;6.35;;
58472;SDS011;44775;51.564;5.460;2023-12-20T09:26:02;24.13;;;6.60;;
58472;SDS011;44775;51.564;5.460;2023-12-20T09:28:28;22.98;;;5.80;;
58472;SDS011;44775;51.564;5.460;2023-12-20T09:30:54;20.50;;;5.63;;
58472;SDS011;44775;51.564;5.460;2023-12-20T09:33:19;18.52;;;5.43;;
58472;SDS011;44775;51.564;5.460;2023-12-20T09:35:44;19.55;;;5.45;;
58472;SDS011;44775;51.564;5.460;2023-12-20T09:38:10;23.15;;;5.88;;
58472;SDS011;44775;51.564;5.460;2023-12-20T09:40:35;24.80;;;5.65;;
58472;SDS011;44775;51.564;5.460;2023-12-20T09:43:10;21.85;;;5.05;;
58472;SDS011;44775;51.564;5.460;2023-12-20T09:45:39;24.60;;;5.65;;
58472;SDS011;44775;51.564;5.460;2023-12-20T09:48:05;23.10;;;5.68;;
58472;SDS011;44775;51.564;5.460;2023-12-20T09:50:32;20.27;;;4.93;;
58472;SDS011;44775;51.564;5.460;2023-12-20T09:52:58;22.77;;;5.80;;
58472;SDS011;44775;51.564;5.460;2023-12-20T09:55:27;14.85;;;4.50;;
58472;SDS011;44775;51.564;5.460;2023-12-20T09:57:55;21.52;;;5.10;;
58472;SDS011;44775;51.564;5.460;2023-12-20T10:00:20;20.42;;;4.65;;
58472;SDS011;44775;51.564;5.460;2023-12-20T10:02:49;30.70;;;5.75;;
58472;SDS011;44775;51.564;5.460;2023-12-20T10:05:22;24.25;;;5.32;;
58472;SDS011;44775;51.564;5.460;2023-12-20T10:07:54;23.45;;;5.05;;
58472;SDS011;44775;51.564;5.460;2023-12-20T10:10:20;23.27;;;5.00;;
58472;SDS011;44775;51.564;5.460;2023-12-20T10:15:31;15.88;;;4.40;;
58472;SDS011;44775;51.564;5.460;2023-12-20T10:17:58;17.40;;;4.75;;
58472;SDS011;44775;51.564;5.460;2023-12-20T10:20:24;22.42;;;4.72;;
58472;SDS011;44775;51.564;5.460;2023-12-20T10:22:49;22.80;;;4.93;;
58472;SDS011;44775;51.564;5.460;2023-12-20T10:25:15;14.48;;;4.53;;
58472;SDS011;44775;51.564;5.460;2023-12-20T10:27:41;24.67;;;5.05;;
58472;SDS011;44775;51.564;5.460;2023-12-20T10:30:06;17.17;;;4.22;;
58472;SDS011;44775;51.564;5.460;2023-12-20T10:32:32;16.48;;;4.15;;
58472;SDS011;44775;51.564;5.460;2023-12-20T10:34:57;19.88;;;4.50;;
58472;SDS011;44775;51.564;5.460;2023-12-20T10:37:24;22.63;;;4.07;;
58472;SDS011;44775;51.564;5.460;2023-12-20T10:39:50;17.60;;;4.78;;
58472;SDS011;44775;51.564;5.460;2023-12-20T10:42:22;21.30;;;4.82;;
58472;SDS011;44775;51.564;5.460;2023-12-20T10:44:49;21.38;;;5.50;;
58472;SDS011;44775;51.564;5.460;2023-12-20T10:47:16;16.95;;;4.30;;
58472;SDS011;44775;51.564;5.460;2023-12-20T10:49:42;18.33;;;5.55;;
58472;SDS011;44775;51.564;5.460;2023-12-20T10:52:09;18.45;;;4.47;;
58472;SDS011;44775;51.564;5.460;2023-12-20T10:54:36;21.92;;;4.90;;
58472;SDS011;44775;51.564;5.460;2023-12-20T10:57:01;19.98;;;4.78;;
58472;SDS011;44775;51.564;5.460;2023-12-20T11:01:58;24.15;;;4.57;;
58472;SDS011;44775;51.564;5.460;2023-12-20T11:04:28;19.80;;;4.40;;
58472;SDS011;44775;51.564;5.460;2023-12-20T11:09:59;17.13;;;4.97;;
58472;SDS011;44775;51.564;5.460;2023-12-20T11:15:34;18.05;;;4.40;;
58472;SDS011;44775;51.564;5.460;2023-12-20T11:18:00;18.83;;;4.40;;
58472;SDS011;44775;51.564;5.460;2023-12-20T11:20:38;17.70;;;4.72;;
58472;SDS011;44775;51.564;5.460;2023-12-20T11:23:05;19.48;;;4.85;;
58472;SDS011;44775;51.564;5.460;2023-12-20T11:28:22;19.23;;;4.77;;
58472;SDS011;44775;51.564;5.460;2023-12-20T11:30:55;20.13;;;4.93;;
58472;SDS011;44775;51.564;5.460;2023-12-20T11:33:37;23.73;;;4.70;;
58472;SDS011;44775;51.564;5.460;2023-12-20T11:36:03;17.67;;;4.43;;
58472;SDS011;44775;51.564;5.460;2023-12-20T11:38:38;25.20;;;5.10;;
58472;SDS011;44775;51.564;5.460;2023-12-20T11:41:06;23.90;;;4.30;;
58472;SDS011;44775;51.564;5.460;2023-12-20T11:43:32;24.05;;;4.93;;
58472;SDS011;44775;51.564;5.460;2023-12-20T11:46:04;21.23;;;4.88;;
58472;SDS011;44775;51.564;5.460;2023-12-20T11:48:34;17.55;;;4.68;;
58472;SDS011;44775;51.564;5.460;2023-12-20T11:51:00;19.23;;;4.80;;
58472;SDS011;44775;51.564;5.460;2023-12-20T11:53:26;28.30;;;4.85;;
58472;SDS011;44775;51.564;5.460;2023-12-20T11:55:51;21.88;;;5.20;;
58472;SDS011;44775;51.564;5.460;2023-12-20T11:58:16;22.52;;;5.30;;
58472;SDS011;44775;51.564;5.460;2023-12-20T12:00:42;23.40;;;5.07;;
58472;SDS011;44775;51.564;5.460;2023-12-20T12:03:08;22.58;;;4.53;;
58472;SDS011;44775;51.564;5.460;2023-12-20T12:05:33;25.30;;;5.15;;
58472;SDS011;44775;51.564;5.460;2023-12-20T12:07:59;24.23;;;6.07;;
58472;SDS011;44775;51.564;5.460;2023-12-20T12:10:24;23.02;;;5.90;;
58472;SDS011;44775;51.564;5.460;2023-12-20T12:12:49;20.77;;;5.13;;
58472;SDS011;44775;51.564;5.460;2023-12-20T12:15:15;22.52;;;5.10;;
58472;SDS011;44775;51.564;5.460;2023-12-20T12:17:40;23.75;;;6.03;;
58472;SDS011;44775;51.564;5.460;2023-12-20T12:20:06;19.25;;;5.50;;
58472;SDS011;44775;51.564;5.460;2023-12-20T12:22:33;20.60;;;5.32;;
58472;SDS011;44775;51.564;5.460;2023-12-20T12:24:59;20.85;;;5.35;;
58472;SDS011;44775;51.564;5.460;2023-12-20T12:27:34;23.55;;;5.30;;
58472;SDS011;44775;51.564;5.460;2023-12-20T12:30:00;28.98;;;5.90;;
58472;SDS011;44775;51.564;5.460;2023-12-20T12:32:27;25.15;;;4.95;;
58472;SDS011;44775;51.564;5.460;2023-12-20T12:34:53;20.42;;;5.22;;
58472;SDS011;44775;51.564;5.460;2023-12-20T12:37:18;24.70;;;5.22;;
58472;SDS011;44775;51.564;5.460;2023-12-20T12:39:44;19.77;;;5.03;;
58472;SDS011;44775;51.564;5.460;2023-12-20T12:42:11;24.10;;;4.90;;
58472;SDS011;44775;51.564;5.460;2023-12-20T12:44:37;17.67;;;4.70;;
58472;SDS011;44775;51.564;5.460;2023-12-20T12:47:02;23.73;;;5.20;;
58472;SDS011;44775;51.564;5.460;2023-12-20T12:49:28;18.45;;;4.32;;
58472;SDS011;44775;51.564;5.460;2023-12-20T12:51:54;21.73;;;5.25;;
58472;SDS011;44775;51.564;5.460;2023-12-20T12:54:23;20.23;;;4.78;;
58472;SDS011;44775;51.564;5.460;2023-12-20T12:56:48;17.75;;;4.47;;
58472;SDS011;44775;51.564;5.460;2023-12-20T12:59:14;25.30;;;5.00;;
58472;SDS011;44775;51.564;5.460;2023-12-20T13:01:40;20.35;;;5.22;;
58472;SDS011;44775;51.564;5.460;2023-12-20T13:04:05;23.60;;;5.13;;
58472;SDS011;44775;51.564;5.460;2023-12-20T13:06:35;20.33;;;4.65;;
58472;SDS011;44775;51.564;5.460;2023-12-20T13:09:00;19.15;;;4.53;;
58472;SDS011;44775;51.564;5.460;2023-12-20T13:11:26;21.63;;;4.60;;
58472;SDS011;44775;51.564;5.460;2023-12-20T13:13:51;21.77;;;4.47;;
58472;SDS011;44775;51.564;5.460;2023-12-20T13:16:16;19.20;;;4.35;;
58472;SDS011;44775;51.564;5.460;2023-12-20T13:18:41;18.55;;;4.40;;
58472;SDS011;44775;51.564;5.460;2023-12-20T13:21:07;21.92;;;5.50;;
58472;SDS011;44775;51.564;5.460;2023-12-20T13:23:33;19.00;;;4.65;;
58472;SDS011;44775;51.564;5.460;2023-12-20T13:25:59;23.20;;;4.78;;
58472;SDS011;44775;51.564;5.460;2023-12-20T13:28:24;22.60;;;5.03;;
58472;SDS011;44775;51.564;5.460;2023-12-20T13:30:49;24.20;;;5.80;;
58472;SDS011;44775;51.564;5.460;2023-12-20T13:33:15;19.33;;;5.13;;
58472;SDS011;44775;51.564;5.460;2023-12-20T13:35:40;22.25;;;5.85;;
58472;SDS011;44775;51.564;5.460;2023-12-20T13:38:05;24.95;;;5.15;;
58472;SDS011;44775;51.564;5.460;2023-12-20T13:40:30;23.52;;;5.25;;
58472;SDS011;44775;51.564;5.460;2023-12-20T13:42:56;20.60;;;5.15;;
58472;SDS011;44775;51.564;5.460;2023-12-20T13:45:22;22.38;;;6.53;;
58472;SDS011;44775;51.564;5.460;2023-12-20T13:47:47;19.00;;;5.20;;
58472;SDS011;44775;51.564;5.460;2023-12-20T13:50:12;20.38;;;5.07;;
58472;SDS011;44775;51.564;5.460;2023-12-20T13:52:38;23.55;;;6.22;;
58472;SDS011;44775;51.564;5.460;2023-12-20T13:55:03;19.25;;;6.05;;
58472;SDS011;44775;51.564;5.460;2023-12-20T13:57:31;23.20;;;5.75;;
58472;SDS011;44775;51.564;5.460;2023-12-20T13:59:56;18.25;;;4.85;;
58472;SDS011;44775;51.564;5.460;2023-12-20T14:02:22;26.23;;;6.22;;
58472;SDS011;44775;51.564;5.460;2023-12-20T14:04:48;26.38;;;5.80;;
58472;SDS011;44775;51.564;5.460;2023-12-20T14:07:13;24.27;;;5.95;;
58472;SDS011;44775;51.564;5.460;2023-12-20T14:09:38;19.63;;;5.72;;
58472;SDS011;44775;51.564;5.460;2023-12-20T14:12:04;22.17;;;5.47;;
58472;SDS011;44775;51.564;5.460;2023-12-20T14:14:30;23.25;;;5.75;;
58472;SDS011;44775;51.564;5.460;2023-12-20T14:16:55;25.33;;;6.47;;
58472;SDS011;44775;51.564;5.460;2023-12-20T14:19:20;28.33;;;6.88;;
58472;SDS011;44775;51.564;5.460;2023-12-20T14:21:46;28.45;;;11.80;;
58472;SDS011;44775;51.564;5.460;2023-12-20T14:24:12;27.02;;;7.15;;
58472;SDS011;44775;51.564;5.460;2023-12-20T14:26:39;26.60;;;10.65;;
58472;SDS011;44775;51.564;5.460;2023-12-20T14:29:07;33.35;;;13.60;;
58472;SDS011;44775;51.564;5.460;2023-12-20T14:31:33;27.38;;;10.88;;
58472;SDS011;44775;51.564;5.460;2023-12-20T14:33:58;28.35;;;7.90;;
58472;SDS011;44775;51.564;5.460;2023-12-20T14:36:24;22.25;;;9.15;;
58472;SDS011;44775;51.564;5.460;2023-12-20T14:38:49;21.40;;;6.70;;